createdAt,value
2023-04-27T00:00:00.663Z,101439.69
2023-04-27T00:02:28.867Z,101441.79
2023-04-27T00:04:57.850Z,101446.13
2023-04-27T00:07:26.742Z,101449.06
2023-04-27T00:09:54.849Z,101448.85
2023-04-27T00:12:22.941Z,101447.61
2023-04-27T00:14:51.056Z,101452.23
2023-04-27T00:17:19.129Z,101453.05
2023-04-27T00:19:48.638Z,101450.40
2023-04-27T00:22:16.604Z,101451.27
2023-04-27T00:24:44.678Z,101449.83
2023-04-27T00:27:13.735Z,101453.08
2023-04-27T00:29:45.009Z,101451.48
2023-04-27T00:32:13.050Z,101456.64
2023-04-27T00:34:41.096Z,101457.23
2023-04-27T00:37:09.106Z,101461.79
2023-04-27T00:39:37.187Z,101465.02
2023-04-27T00:42:05.899Z,101466.91
2023-04-27T00:44:33.922Z,101462.93
2023-04-27T00:47:03.859Z,101468.27
2023-04-27T00:49:32.748Z,101467.23
2023-04-27T00:52:00.905Z,101468.58
2023-04-27T00:54:29.707Z,101472.40
2023-04-27T00:56:59.748Z,101473.95
2023-04-27T00:59:29.172Z,101475.85
2023-04-27T01:01:57.298Z,101474.59
2023-04-27T01:04:26.135Z,101476.74
2023-04-27T01:06:54.951Z,101477.34
2023-04-27T01:09:23.349Z,101477.33
2023-04-27T01:11:51.383Z,101477.33
2023-04-27T01:14:19.344Z,101477.00
2023-04-27T01:16:47.655Z,101478.52
2023-04-27T01:19:16.005Z,101480.71
2023-04-27T01:21:44.425Z,101485.11
2023-04-27T01:24:12.498Z,101485.02
2023-04-27T01:26:40.640Z,101486.34
2023-04-27T01:29:08.754Z,101482.30
2023-04-27T01:31:36.839Z,101480.16
2023-04-27T01:34:04.971Z,101480.48
2023-04-27T01:36:32.993Z,101483.35
2023-04-27T01:39:01.116Z,101486.73
2023-04-27T01:41:29.028Z,101484.66
2023-04-27T01:43:57.060Z,101485.84
2023-04-27T01:46:25.054Z,101487.20
2023-04-27T01:48:53.008Z,101487.36
2023-04-27T01:51:21.582Z,101491.64
2023-04-27T01:53:50.028Z,101489.17
2023-04-27T01:56:18.024Z,101495.21
2023-04-27T01:58:46.507Z,101495.05
2023-04-27T02:01:14.822Z,101494.36
2023-04-27T02:03:43.095Z,101497.80
2023-04-27T02:06:11.339Z,101495.70
2023-04-27T02:08:40.644Z,101496.54
2023-04-27T02:11:09.840Z,101494.23
2023-04-27T02:13:37.853Z,101496.25
2023-04-27T02:16:06.514Z,101495.48
2023-04-27T02:18:35.153Z,101499.06
2023-04-27T02:21:09.597Z,101502.06
2023-04-27T02:23:37.832Z,101500.75
2023-04-27T02:26:06.088Z,101506.27
2023-04-27T02:28:34.083Z,101504.24
2023-04-27T02:31:02.969Z,101504.13
2023-04-27T02:33:31.026Z,101504.88
2023-04-27T02:35:59.029Z,101508.02
2023-04-27T02:38:30.454Z,101505.86
2023-04-27T02:40:58.459Z,101507.59
2023-04-27T02:43:27.458Z,101506.57
2023-04-27T02:45:55.573Z,101504.63
2023-04-27T02:48:23.486Z,101504.56
2023-04-27T02:50:52.188Z,101506.77
2023-04-27T02:53:20.251Z,101508.80
2023-04-27T02:55:49.953Z,101511.30
2023-04-27T02:58:18.116Z,101511.55
2023-04-27T03:00:46.253Z,101512.09
2023-04-27T03:03:15.207Z,101515.35
2023-04-27T03:05:43.451Z,101517.53
2023-04-27T03:08:11.427Z,101519.55
2023-04-27T03:10:39.391Z,101516.73
2023-04-27T03:13:07.338Z,101519.41
2023-04-27T03:15:35.546Z,101517.47
2023-04-27T03:18:04.290Z,101519.63
2023-04-27T03:20:32.391Z,101520.92
2023-04-27T03:23:00.559Z,101521.63
2023-04-27T03:25:28.638Z,101524.36
2023-04-27T03:27:57.006Z,101526.91
2023-04-27T03:30:24.946Z,101524.98
2023-04-27T03:32:52.933Z,101526.89
2023-04-27T03:35:20.966Z,101527.43
2023-04-27T03:37:48.949Z,101528.48
2023-04-27T03:40:16.965Z,101533.00
2023-04-27T03:42:45.028Z,101536.98
2023-04-27T03:45:13.008Z,101534.91
2023-04-27T03:47:41.403Z,101539.55
2023-04-27T03:50:10.065Z,101540.58
2023-04-27T03:52:38.027Z,101544.53
2023-04-27T03:55:07.181Z,101547.30
2023-04-27T03:57:35.740Z,101548.05
2023-04-27T04:00:07.826Z,101550.04
2023-04-27T04:02:40.921Z,101550.64
2023-04-27T04:05:09.466Z,101553.05
2023-04-27T04:07:37.769Z,101557.91
2023-04-27T04:10:07.081Z,101555.43
2023-04-27T04:12:35.080Z,101558.91
2023-04-27T04:15:06.611Z,101562.83
2023-04-27T04:17:35.021Z,101559.14
2023-04-27T04:20:08.105Z,101566.64
2023-04-27T04:22:36.725Z,101570.88
2023-04-27T04:25:05.532Z,101575.27
2023-04-27T04:27:33.688Z,101572.47
2023-04-27T04:30:01.979Z,101571.92
2023-04-27T04:32:30.123Z,101577.29
2023-04-27T04:34:59.187Z,101573.83
2023-04-27T04:37:28.210Z,101573.48
2023-04-27T04:39:56.743Z,101573.98
2023-04-27T04:42:26.573Z,101574.45
2023-04-27T04:44:54.738Z,101574.48
2023-04-27T04:47:23.369Z,101575.01
2023-04-27T04:49:52.940Z,101568.73
2023-04-27T04:52:21.392Z,101570.42
2023-04-27T04:54:53.443Z,101564.25
2023-04-27T04:57:22.477Z,101565.70
2023-04-27T04:59:51.024Z,101564.27
2023-04-27T05:02:19.072Z,101561.04
2023-04-27T05:04:47.513Z,101562.73
2023-04-27T05:07:16.674Z,101560.78
2023-04-27T05:09:46.645Z,101562.64
2023-04-27T05:12:14.578Z,101558.35
2023-04-27T05:14:43.871Z,101562.45
2023-04-27T05:17:12.611Z,101565.63
2023-04-27T05:19:41.232Z,101569.00
2023-04-27T05:22:09.215Z,101566.14
2023-04-27T05:24:37.397Z,101566.03
2023-04-27T05:27:05.463Z,101570.86
2023-04-27T05:29:33.864Z,101568.14
2023-04-27T05:32:01.918Z,101571.85
2023-04-27T05:34:30.043Z,101572.11
2023-04-27T05:36:58.071Z,101573.73
2023-04-27T05:39:26.434Z,101569.36
2023-04-27T05:41:54.726Z,101573.98
2023-04-27T05:44:25.437Z,101573.50
2023-04-27T05:46:53.353Z,101574.94
2023-04-27T05:49:21.765Z,101575.52
2023-04-27T05:51:49.850Z,101571.70
2023-04-27T05:54:17.774Z,101570.61
2023-04-27T05:56:46.042Z,101574.94
2023-04-27T05:59:14.375Z,101581.11
2023-04-27T06:01:42.545Z,101581.75
2023-04-27T06:04:10.683Z,101581.29
2023-04-27T06:06:38.688Z,101583.79
2023-04-27T06:09:06.715Z,101593.91
2023-04-27T06:11:34.931Z,101593.98
2023-04-27T06:14:03.098Z,101591.82
2023-04-27T06:16:31.163Z,101591.67
2023-04-27T06:18:59.240Z,101588.27
2023-04-27T06:21:28.344Z,101590.14
2023-04-27T06:23:56.406Z,101593.13
2023-04-27T06:26:24.376Z,101590.84
2023-04-27T06:28:52.507Z,101582.41
2023-04-27T06:31:20.866Z,101578.80
2023-04-27T06:33:48.995Z,101578.27
2023-04-27T06:36:17.003Z,101581.43
2023-04-27T06:38:44.952Z,101583.93
2023-04-27T06:41:13.122Z,101585.75
2023-04-27T06:43:41.176Z,101591.56
2023-04-27T06:46:09.183Z,101593.65
2023-04-27T06:48:37.212Z,101594.00
2023-04-27T06:51:05.705Z,101596.07
2023-04-27T06:53:34.074Z,101598.40
2023-04-27T06:56:02.597Z,101601.11
2023-04-27T06:58:30.578Z,101606.55
2023-04-27T07:00:58.547Z,101608.29
2023-04-27T07:03:27.010Z,101608.17
2023-04-27T07:05:56.770Z,101606.56
2023-04-27T07:08:24.965Z,101598.91
2023-04-27T07:10:53.071Z,101598.41
2023-04-27T07:13:21.097Z,101596.14
2023-04-27T07:15:54.055Z,101598.10
2023-04-27T07:18:22.001Z,101598.36
2023-04-27T07:20:50.017Z,101600.69
2023-04-27T07:23:18.287Z,101601.43
2023-04-27T07:25:46.450Z,101606.55
2023-04-27T07:28:15.302Z,101606.92
2023-04-27T07:30:43.315Z,101613.08
2023-04-27T07:33:11.649Z,101615.19
2023-04-27T07:35:39.722Z,101612.40
2023-04-27T07:38:08.639Z,101612.41
2023-04-27T07:40:37.158Z,101615.02
2023-04-27T07:43:05.662Z,101617.80
2023-04-27T07:45:33.832Z,101616.04
2023-04-27T07:48:02.268Z,101613.41
2023-04-27T07:50:31.057Z,101618.81
2023-04-27T07:52:59.857Z,101613.39
2023-04-27T07:55:28.575Z,101614.60
2023-04-27T07:57:57.466Z,101616.00
2023-04-27T08:00:26.916Z,101618.30
2023-04-27T08:02:55.383Z,101623.90
2023-04-27T08:05:23.976Z,101626.18
2023-04-27T08:07:54.535Z,101619.91
2023-04-27T08:10:23.575Z,101625.70
2023-04-27T08:12:51.702Z,101624.65
2023-04-27T08:15:20.987Z,101629.19
2023-04-27T08:17:48.985Z,101631.81
2023-04-27T08:20:17.026Z,101634.79
2023-04-27T08:22:44.987Z,101635.31
2023-04-27T08:25:12.949Z,101633.04
2023-04-27T08:27:41.323Z,101631.81
2023-04-27T08:30:10.053Z,101633.02
2023-04-27T08:32:38.292Z,101635.09
2023-04-27T08:35:07.253Z,101634.20
2023-04-27T08:37:35.284Z,101636.96
2023-04-27T08:40:08.336Z,101637.47
2023-04-27T08:42:36.505Z,101638.36
2023-04-27T08:45:08.487Z,101640.48
2023-04-27T08:47:43.506Z,101641.16
2023-04-27T08:50:13.072Z,101634.98
2023-04-27T08:52:45.085Z,101630.20
2023-04-27T08:55:15.109Z,101628.70
2023-04-27T08:57:58.442Z,101624.21
2023-04-27T09:00:27.403Z,101629.49
2023-04-27T09:02:55.722Z,101622.16
2023-04-27T09:05:23.973Z,101623.91
2023-04-27T09:08:05.248Z,101627.39
2023-04-27T09:10:51.163Z,101619.36
2023-04-27T09:13:19.166Z,101622.56
2023-04-27T09:15:48.553Z,101627.05
2023-04-27T09:18:20.253Z,101621.80
2023-04-27T09:20:53.761Z,101626.19
2023-04-27T09:23:31.976Z,101627.17
2023-04-27T09:26:01.992Z,101624.39
2023-04-27T09:28:32.121Z,101621.00
2023-04-27T09:31:01.901Z,101616.75
2023-04-27T09:33:31.925Z,101619.17
2023-04-27T09:36:02.429Z,101617.63
2023-04-27T09:38:31.614Z,101618.93
2023-04-27T09:41:00.852Z,101623.58
2023-04-27T09:43:30.930Z,101631.57
2023-04-27T09:45:59.196Z,101645.71
2023-04-27T09:48:27.283Z,101664.22
2023-04-27T09:50:55.418Z,101678.48
2023-04-27T09:53:32.720Z,101685.33
2023-04-27T09:56:09.955Z,101691.34
2023-04-27T09:59:02.492Z,101696.30
2023-04-27T10:01:43.619Z,101693.65
2023-04-27T10:04:36.775Z,101685.96
2023-04-27T10:07:07.788Z,101684.83
2023-04-27T10:09:40.265Z,101683.15
2023-04-27T10:12:28.281Z,101680.30
2023-04-27T10:14:58.388Z,101674.39
2023-04-27T10:17:30.897Z,101677.75
2023-04-27T10:20:00.061Z,101673.63
2023-04-27T10:22:48.396Z,101668.50
2023-04-27T10:25:26.411Z,101666.91
2023-04-27T10:28:03.320Z,101666.32
2023-04-27T10:30:34.066Z,101660.09
2023-04-27T10:33:10.668Z,101653.69
2023-04-27T10:35:40.932Z,101646.59
2023-04-27T10:38:15.441Z,101637.73
2023-04-27T10:40:58.259Z,101644.02
2023-04-27T10:43:28.890Z,101642.77
2023-04-27T10:46:14.055Z,101642.61
2023-04-27T10:48:43.785Z,101645.06
2023-04-27T10:51:17.624Z,101650.65
2023-04-27T10:53:46.061Z,101649.98
2023-04-27T10:56:14.541Z,101648.60
2023-04-27T10:58:48.920Z,101645.45
2023-04-27T11:01:27.173Z,101648.44
2023-04-27T11:04:01.966Z,101646.67
2023-04-27T11:06:30.843Z,101652.77
2023-04-27T11:08:59.554Z,101653.62
2023-04-27T11:11:27.634Z,101651.16
2023-04-27T11:13:58.477Z,101664.71
2023-04-27T11:16:26.975Z,101677.20
2023-04-27T11:18:55.050Z,101688.65
2023-04-27T11:21:23.702Z,101683.31
2023-04-27T11:23:51.782Z,101681.98
2023-04-27T11:26:22.078Z,101685.85
2023-04-27T11:28:59.269Z,101681.70
2023-04-27T11:31:29.225Z,101673.68
2023-04-27T11:33:57.310Z,101680.20
2023-04-27T11:36:26.979Z,101706.33
2023-04-27T11:38:59.304Z,101719.39
2023-04-27T11:41:37.602Z,101729.91
2023-04-27T11:44:10.264Z,101744.95
2023-04-27T11:46:39.507Z,101748.77
2023-04-27T11:49:10.685Z,101740.80
2023-04-27T11:51:40.155Z,101755.61
2023-04-27T11:54:09.994Z,101769.45
2023-04-27T11:56:42.364Z,101764.04
2023-04-27T11:59:27.745Z,101757.24
2023-04-27T12:01:55.782Z,101752.12
2023-04-27T12:04:24.109Z,101746.60
2023-04-27T12:06:52.301Z,101750.73
2023-04-27T12:09:20.333Z,101748.52
2023-04-27T12:11:48.430Z,101742.52
2023-04-27T12:14:16.835Z,101739.96
2023-04-27T12:16:45.274Z,101742.60
2023-04-27T12:19:13.530Z,101743.29
2023-04-27T12:21:42.909Z,101744.17
2023-04-27T12:24:11.360Z,101743.80
2023-04-27T12:26:39.985Z,101734.47
2023-04-27T12:29:08.068Z,101734.90
2023-04-27T12:31:36.493Z,101736.60
2023-04-27T12:34:04.724Z,101739.67
2023-04-27T12:36:33.095Z,101737.15
2023-04-27T12:39:15.463Z,101740.05
2023-04-27T12:41:44.736Z,101734.09
2023-04-27T12:44:14.221Z,101737.02
2023-04-27T12:46:43.716Z,101733.48
2023-04-27T12:49:12.728Z,101733.90
2023-04-27T12:51:41.290Z,101730.99
2023-04-27T12:54:10.794Z,101729.78
2023-04-27T12:56:38.962Z,101726.50
2023-04-27T12:59:07.149Z,101720.61
2023-04-27T13:01:35.614Z,101728.00
2023-04-27T13:04:06.044Z,101727.87
2023-04-27T13:06:34.454Z,101729.27
2023-04-27T13:09:02.853Z,101732.96
2023-04-27T13:11:31.060Z,101735.44
2023-04-27T13:13:59.508Z,101738.61
2023-04-27T13:16:27.996Z,101741.10
2023-04-27T13:18:56.620Z,101749.51
2023-04-27T13:21:24.774Z,101752.49
2023-04-27T13:23:54.938Z,101756.33
2023-04-27T13:26:23.076Z,101761.52
2023-04-27T13:28:51.133Z,101762.39
2023-04-27T13:31:19.764Z,101763.09
2023-04-27T13:33:47.839Z,101768.02
2023-04-27T13:36:16.044Z,101766.30
2023-04-27T13:38:44.103Z,101768.23
2023-04-27T13:41:12.207Z,101762.34
2023-04-27T13:43:40.704Z,101762.44
2023-04-27T13:46:08.701Z,101764.10
2023-04-27T13:48:36.742Z,101762.59
2023-04-27T13:51:04.795Z,101758.84
2023-04-27T13:53:32.884Z,101760.62
2023-04-27T13:56:01.249Z,101751.06
2023-04-27T13:58:29.422Z,101741.51
2023-04-27T14:00:58.386Z,101739.83
2023-04-27T14:03:26.722Z,101740.57
2023-04-27T14:05:54.962Z,101740.28
2023-04-27T14:08:23.026Z,101739.81
2023-04-27T14:10:51.079Z,101748.58
2023-04-27T14:13:19.864Z,101744.06
2023-04-27T14:15:47.884Z,101742.15
2023-04-27T14:18:16.040Z,101743.92
2023-04-27T14:20:44.809Z,101740.11
2023-04-27T14:23:13.031Z,101738.05
2023-04-27T14:25:41.516Z,101735.98
2023-04-27T14:28:13.673Z,101737.40
2023-04-27T14:30:41.816Z,101732.00
2023-04-27T14:33:09.941Z,101730.08
2023-04-27T14:35:38.176Z,101727.30
2023-04-27T14:38:06.464Z,101728.52
2023-04-27T14:40:34.893Z,101729.05
2023-04-27T14:43:02.984Z,101729.94
2023-04-27T14:45:43.625Z,101731.52
2023-04-27T14:48:18.636Z,101729.42
2023-04-27T14:50:47.062Z,101733.97
2023-04-27T14:53:15.055Z,101736.77
2023-04-27T14:55:46.022Z,101733.80
2023-04-27T14:58:14.452Z,101741.30
2023-04-27T15:00:42.517Z,101752.30
2023-04-27T15:03:10.675Z,101759.64
2023-04-27T15:05:38.870Z,101773.21
2023-04-27T15:08:06.851Z,101772.04
2023-04-27T15:10:34.842Z,101772.61
2023-04-27T15:13:02.999Z,101771.63
2023-04-27T15:15:31.051Z,101766.46
2023-04-27T15:17:59.199Z,101768.33
2023-04-27T15:20:27.779Z,101768.00
2023-04-27T15:22:55.817Z,101773.07
2023-04-27T15:25:23.839Z,101772.91
2023-04-27T15:27:51.901Z,101768.73
2023-04-27T15:30:19.971Z,101765.79
2023-04-27T15:32:48.365Z,101766.33
2023-04-27T15:35:16.617Z,101773.50
2023-04-27T15:37:44.698Z,101777.70
2023-04-27T15:40:13.044Z,101780.70
2023-04-27T15:42:41.133Z,101777.05
2023-04-27T15:45:10.282Z,101774.81
2023-04-27T15:47:38.752Z,101780.77
2023-04-27T15:50:08.152Z,101783.21
2023-04-27T15:52:36.292Z,101781.31
2023-04-27T15:55:05.130Z,101780.29
2023-04-27T15:57:33.150Z,101782.05
2023-04-27T16:00:01.408Z,101783.31
2023-04-27T16:02:29.540Z,101780.71
2023-04-27T16:04:57.674Z,101785.27
2023-04-27T16:07:25.747Z,101778.28
2023-04-27T16:09:54.087Z,101779.48
2023-04-27T16:12:22.178Z,101775.98
2023-04-27T16:14:52.136Z,101776.83
2023-04-27T16:17:20.309Z,101779.42
2023-04-27T16:19:48.414Z,101778.17
2023-04-27T16:22:17.131Z,101784.75
2023-04-27T16:24:45.406Z,101779.11
2023-04-27T16:27:13.478Z,101781.73
2023-04-27T16:29:41.660Z,101778.55
2023-04-27T16:32:11.078Z,101783.94
2023-04-27T16:34:39.348Z,101780.60
2023-04-27T16:37:07.384Z,101782.86
2023-04-27T16:39:35.905Z,101782.86
2023-04-27T16:42:04.897Z,101786.16
2023-04-27T16:44:32.953Z,101790.00
2023-04-27T16:47:01.007Z,101788.05
2023-04-27T16:49:28.980Z,101787.88
2023-04-27T16:51:56.901Z,101785.23
2023-04-27T16:54:24.818Z,101783.95
2023-04-27T16:56:54.603Z,101784.99
2023-04-27T16:59:23.414Z,101785.83
2023-04-27T17:01:51.600Z,101785.43
2023-04-27T17:04:20.224Z,101786.11
2023-04-27T17:06:48.698Z,101784.71
2023-04-27T17:09:16.998Z,101786.09
2023-04-27T17:11:45.766Z,101787.48
2023-04-27T17:14:14.322Z,101790.59
2023-04-27T17:16:42.468Z,101793.52
2023-04-27T17:19:10.646Z,101790.38
2023-04-27T17:21:38.817Z,101791.76
2023-04-27T17:24:09.454Z,101796.27
2023-04-27T17:26:38.438Z,101798.48
2023-04-27T17:29:07.032Z,101801.59
2023-04-27T17:31:35.086Z,101800.66
2023-04-27T17:34:03.302Z,101804.45
2023-04-27T17:36:31.666Z,101803.89
2023-04-27T17:39:01.347Z,101806.84
2023-04-27T17:41:29.386Z,101805.95
2023-04-27T17:43:58.370Z,101804.70
2023-04-27T17:46:26.514Z,101804.86
2023-04-27T17:48:54.563Z,101809.37
2023-04-27T17:51:22.598Z,101811.95
2023-04-27T17:53:50.505Z,101813.30
2023-04-27T17:56:18.464Z,101814.98
2023-04-27T17:58:46.434Z,101818.80
2023-04-27T18:01:14.343Z,101818.56
2023-04-27T18:03:42.527Z,101822.67
2023-04-27T18:06:10.871Z,101820.67
2023-04-27T18:08:38.926Z,101826.17
2023-04-27T18:11:07.064Z,101826.24
2023-04-27T18:13:35.164Z,101829.66
2023-04-27T18:16:03.293Z,101829.38
2023-04-27T18:18:31.476Z,101833.65
2023-04-27T18:20:59.688Z,101834.61
2023-04-27T18:23:27.649Z,101839.08
2023-04-27T18:26:00.011Z,101843.05
2023-04-27T18:28:28.000Z,101843.30
2023-04-27T18:30:56.091Z,101841.82
2023-04-27T18:33:24.107Z,101845.41
2023-04-27T18:35:52.407Z,101851.25
2023-04-27T18:38:20.390Z,101847.88
2023-04-27T18:40:48.440Z,101851.44
2023-04-27T18:43:16.714Z,101851.04
2023-04-27T18:45:44.719Z,101854.97
2023-04-27T18:48:12.773Z,101858.89
2023-04-27T18:50:40.927Z,101862.14
2023-04-27T18:53:08.891Z,101868.52
2023-04-27T18:55:36.864Z,101870.52
2023-04-27T18:58:04.904Z,101871.52
2023-04-27T19:00:33.047Z,101870.92
2023-04-27T19:03:01.207Z,101872.93
2023-04-27T19:05:29.503Z,101876.15
2023-04-27T19:07:57.763Z,101876.75
2023-04-27T19:10:25.674Z,101875.77
2023-04-27T19:12:54.279Z,101880.89
2023-04-27T19:15:22.371Z,101880.62
2023-04-27T19:17:58.530Z,101879.48
2023-04-27T19:20:34.775Z,101883.66
2023-04-27T19:23:03.267Z,101885.67
2023-04-27T19:25:31.435Z,101888.01
2023-04-27T19:27:59.435Z,101886.38
2023-04-27T19:30:29.332Z,101888.37
2023-04-27T19:32:57.607Z,101887.23
2023-04-27T19:35:26.675Z,101890.30
2023-04-27T19:37:54.661Z,101892.13
2023-04-27T19:40:22.630Z,101892.55
2023-04-27T19:42:50.580Z,101899.41
2023-04-27T19:45:18.678Z,101897.06
2023-04-27T19:47:48.060Z,101897.29
2023-04-27T19:50:17.587Z,101900.11
2023-04-27T19:52:45.783Z,101902.38
2023-04-27T19:55:14.685Z,101902.43
2023-04-27T19:57:42.588Z,101902.80
2023-04-27T20:00:12.311Z,101899.15
2023-04-27T20:02:43.452Z,101903.85
2023-04-27T20:05:13.437Z,101903.99
2023-04-27T20:07:42.851Z,101909.84
2023-04-27T20:10:11.303Z,101912.73
2023-04-27T20:12:47.966Z,101908.55
2023-04-27T20:15:23.607Z,101913.98
2023-04-27T20:17:52.687Z,101916.16
2023-04-27T20:20:21.239Z,101915.91
2023-04-27T20:22:49.619Z,101914.23
2023-04-27T20:25:19.725Z,101913.83
2023-04-27T20:27:47.800Z,101913.48
2023-04-27T20:30:16.178Z,101913.63
2023-04-27T20:32:44.858Z,101916.90
2023-04-27T20:35:12.931Z,101919.44
2023-04-27T20:37:43.668Z,101921.91
2023-04-27T20:40:16.738Z,101926.13
2023-04-27T20:42:45.970Z,101930.02
2023-04-27T20:45:14.056Z,101929.11
2023-04-27T20:47:42.319Z,101931.21
2023-04-27T20:50:10.979Z,101934.23
2023-04-27T20:52:39.052Z,101935.33
2023-04-27T20:55:07.629Z,101936.30
2023-04-27T20:57:35.762Z,101937.05
2023-04-27T21:00:04.353Z,101936.08
2023-04-27T21:02:32.326Z,101939.84
2023-04-27T21:05:00.502Z,101942.40
2023-04-27T21:07:28.599Z,101938.83
2023-04-27T21:09:56.504Z,101941.47
2023-04-27T21:12:24.445Z,101940.00
2023-04-27T21:14:52.612Z,101944.70
2023-04-27T21:17:20.677Z,101940.39
2023-04-27T21:19:48.650Z,101939.62
2023-04-27T21:22:16.708Z,101940.76
2023-04-27T21:24:44.704Z,101941.50
2023-04-27T21:27:12.855Z,101941.23
2023-04-27T21:29:40.874Z,101943.16
2023-04-27T21:32:08.801Z,101944.48
2023-04-27T21:34:37.063Z,101943.89
2023-04-27T21:37:05.034Z,101949.48
2023-04-27T21:39:33.007Z,101948.84
2023-04-27T21:42:01.175Z,101947.66
2023-04-27T21:44:29.091Z,101948.44
2023-04-27T21:46:57.298Z,101950.35
2023-04-27T21:49:25.195Z,101952.23
2023-04-27T21:51:53.313Z,101956.61
2023-04-27T21:54:21.713Z,101955.99
2023-04-27T21:56:49.633Z,101956.03
2023-04-27T21:59:17.573Z,101959.41
2023-04-27T22:01:45.662Z,101957.58
2023-04-27T22:04:13.899Z,101955.83
2023-04-27T22:06:42.754Z,101954.66
2023-04-27T22:09:12.369Z,101953.09
2023-04-27T22:11:40.581Z,101954.39
2023-04-27T22:14:08.658Z,101952.61
2023-04-27T22:16:36.835Z,101957.13
2023-04-27T22:19:05.207Z,101957.02
2023-04-27T22:21:33.372Z,101958.88
2023-04-27T22:24:01.447Z,101958.09
2023-04-27T22:26:29.725Z,101959.59
2023-04-27T22:28:57.666Z,101962.78
2023-04-27T22:31:25.920Z,101961.16
2023-04-27T22:33:54.142Z,101965.19
2023-04-27T22:36:22.132Z,101960.84
2023-04-27T22:38:51.206Z,101959.05
2023-04-27T22:41:19.374Z,101956.41
2023-04-27T22:43:47.346Z,101957.61
2023-04-27T22:46:15.311Z,101958.73
2023-04-27T22:48:43.996Z,101959.54
2023-04-27T22:51:12.479Z,101961.98
2023-04-27T22:53:40.758Z,101968.91
2023-04-27T22:56:08.925Z,101967.89
2023-04-27T22:58:36.890Z,101965.56
2023-04-27T23:01:04.986Z,101964.24
2023-04-27T23:03:33.259Z,101965.14
2023-04-27T23:06:01.832Z,101963.70
2023-04-27T23:08:29.793Z,101966.11
2023-04-27T23:10:57.719Z,101969.42
2023-04-27T23:13:28.601Z,101965.69
2023-04-27T23:15:56.964Z,101964.02
2023-04-27T23:18:24.913Z,101965.10
2023-04-27T23:20:54.808Z,101965.73
2023-04-27T23:23:22.805Z,101965.21
2023-04-27T23:25:50.783Z,101964.40
2023-04-27T23:28:18.858Z,101965.36
2023-04-27T23:30:53.030Z,101965.62
2023-04-27T23:33:21.951Z,101964.28
2023-04-27T23:35:50.032Z,101965.23
2023-04-27T23:38:17.929Z,101964.79
2023-04-27T23:40:45.878Z,101965.20
2023-04-27T23:43:14.011Z,101962.33
2023-04-27T23:45:42.006Z,101967.19
2023-04-27T23:48:09.958Z,101966.54
2023-04-27T23:50:37.948Z,101963.67
2023-04-27T23:53:05.974Z,101966.50
2023-04-27T23:55:35.015Z,101964.48
2023-04-27T23:58:03.807Z,101964.51
